Time;durP1;ratioP1;P1;durP2;ratioP2;P2;SDS_P1;SDS_P2;PMS_P1;PMS_P2;Temp;Humidity;BMP_temperature;BMP_pressure;BME280_temperature;BME280_humidity;BME280_pressure;Samples;Min_cycle;Max_cycle;Signal;HPM_P1;HPM_P2
2021/07/22 00:00:50;;;;;;;1.20;0.32;;;;;;;-142.37;100.00;59669.53;5014244;28;20077;-69
2021/07/22 00:03:16;;;;;;;0.63;0.50;;;;;;;-142.37;100.00;59669.53;5013961;28;20029;-69
2021/07/22 00:05:42;;;;;;;0.65;0.22;;;;;;;-142.37;100.00;59669.53;5014210;28;20368;-69
2021/07/22 00:08:11;;;;;;;0.85;0.40;;;;;;;-142.37;100.00;59669.53;5014064;28;20029;-68
2021/07/22 00:10:38;;;;;;;2.00;0.52;;;;;;;-142.37;100.00;59669.53;5014261;28;20038;-68
2021/07/22 00:13:03;;;;;;;1.05;0.40;;;;;;;-142.37;100.00;59669.53;5014275;28;20110;-67
2021/07/22 00:15:29;;;;;;;1.48;0.55;;;;;;;-142.37;100.00;59669.53;5014207;28;20109;-67
2021/07/22 00:17:54;;;;;;;0.50;0.40;;;;;;;-142.37;100.00;59669.53;5012790;28;20024;-68
2021/07/22 00:20:25;;;;;;;2.15;0.60;;;;;;;-142.37;100.00;59669.53;5014127;28;20026;-69
2021/07/22 00:22:52;;;;;;;1.20;0.60;;;;;;;-142.37;100.00;59669.53;5014166;28;20072;-69
2021/07/22 00:25:18;;;;;;;0.73;0.30;;;;;;;-142.37;100.00;59669.53;5014072;28;20553;-68
2021/07/22 00:27:45;;;;;;;1.33;0.52;;;;;;;-142.37;100.00;59669.53;5014155;28;20037;-66
2021/07/22 00:30:11;;;;;;;1.85;0.50;;;;;;;-142.37;100.00;59669.53;5013874;28;20488;-67
2021/07/22 00:32:38;;;;;;;1.92;0.43;;;;;;;-142.37;100.00;59669.53;5014019;28;20053;-68
2021/07/22 00:35:04;;;;;;;1.77;0.20;;;;;;;-142.37;100.00;59669.53;5014055;28;20510;-69
2021/07/22 00:37:30;;;;;;;1.08;0.43;;;;;;;-142.37;100.00;59669.53;5013752;28;20030;-69
2021/07/22 00:39:57;;;;;;;0.73;0.30;;;;;;;-142.37;100.00;59669.53;5013561;28;20488;-69
2021/07/22 00:42:22;;;;;;;1.13;0.30;;;;;;;-142.37;100.00;59669.53;5013660;28;20423;-70
2021/07/22 00:44:48;;;;;;;0.52;0.25;;;;;;;-142.37;100.00;59669.53;5013970;28;20021;-68
2021/07/22 00:47:13;;;;;;;0.88;0.25;;;;;;;-142.37;100.00;59669.53;5013579;28;20025;-68
2021/07/22 00:49:38;;;;;;;1.77;0.30;;;;;;;-142.37;100.00;59669.53;5013618;28;20029;-68
2021/07/22 00:52:04;;;;;;;2.47;0.50;;;;;;;-142.37;100.00;59669.53;5013628;28;20030;-69
2021/07/22 00:54:29;;;;;;;1.15;0.30;;;;;;;-142.37;100.00;59669.53;5013612;28;20053;-69
2021/07/22 00:56:54;;;;;;;1.23;0.28;;;;;;;-142.37;100.00;59669.53;5013690;28;20026;-69
2021/07/22 00:59:20;;;;;;;1.73;0.30;;;;;;;-142.37;100.00;59669.53;5013243;28;20034;-68
2021/07/22 01:01:45;;;;;;;1.00;0.30;;;;;;;-142.37;100.00;59669.53;5013485;28;20128;-67
2021/07/22 01:04:10;;;;;;;0.73;0.32;;;;;;;-142.37;100.00;59669.53;5013446;28;20426;-67
2021/07/22 01:06:36;;;;;;;2.30;0.52;;;;;;;-142.37;100.00;59669.53;5013757;28;20022;-67
2021/07/22 01:09:01;;;;;;;0.50;0.30;;;;;;;-142.37;100.00;59669.53;5014768;28;20033;-67
2021/07/22 01:11:26;;;;;;;1.10;0.30;;;;;;;-142.37;100.00;59669.53;5017219;28;20388;-69
2021/07/22 01:13:51;;;;;;;1.60;0.40;;;;;;;-142.37;100.00;59669.53;5017424;28;20033;-68
2021/07/22 01:16:17;;;;;;;0.90;0.40;;;;;;;-142.37;100.00;59669.53;5017108;28;20569;-66
2021/07/22 01:18:42;;;;;;;2.35;0.70;;;;;;;-142.37;100.00;59669.53;5017227;28;20048;-66
2021/07/22 01:21:09;;;;;;;2.55;0.57;;;;;;;-142.37;100.00;59669.53;5017207;28;20400;-67
2021/07/22 01:23:35;;;;;;;2.28;0.38;;;;;;;-142.37;100.00;59669.53;5017252;28;20476;-67
2021/07/22 01:26:00;;;;;;;1.58;0.28;;;;;;;-142.37;100.00;59669.53;5017179;28;20104;-68
2021/07/22 01:28:26;;;;;;;1.98;0.20;;;;;;;-142.37;100.00;59669.53;5016870;28;20071;-69
2021/07/22 01:30:53;;;;;;;1.30;0.40;;;;;;;-142.37;100.00;59669.53;5017173;28;20045;-69
2021/07/22 01:33:18;;;;;;;2.05;0.40;;;;;;;-142.37;100.00;59669.53;5016975;28;20385;-68
2021/07/22 01:35:44;;;;;;;0.93;0.28;;;;;;;-142.37;100.00;59669.53;5016971;28;20026;-68
2021/07/22 01:38:10;;;;;;;1.92;0.47;;;;;;;-142.37;100.00;59669.53;5016498;28;20435;-68
2021/07/22 01:40:36;;;;;;;0.43;0.20;;;;;;;-142.37;100.00;59669.53;5016747;28;20101;-68
2021/07/22 01:43:05;;;;;;;2.28;0.57;;;;;;;-142.37;100.00;59669.53;5016694;28;20026;-69
2021/07/22 01:45:30;;;;;;;0.77;0.30;;;;;;;-142.37;100.00;59669.53;5017070;28;20368;-69
2021/07/22 01:47:57;;;;;;;0.90;0.35;;;;;;;-142.37;100.00;59669.53;5016758;28;20033;-69
2021/07/22 01:50:22;;;;;;;2.03;0.50;;;;;;;-142.37;100.00;59669.53;5016649;28;20026;-67
2021/07/22 01:52:47;;;;;;;0.30;0.17;;;;;;;-142.37;100.00;59669.53;5016749;28;20024;-67
2021/07/22 01:55:13;;;;;;;0.90;0.43;;;;;;;-142.37;100.00;59669.53;5016273;28;20049;-67
2021/07/22 01:57:38;;;;;;;2.55;0.50;;;;;;;-142.37;100.00;59669.53;5016618;28;20033;-68
2021/07/22 02:00:06;;;;;;;1.67;0.32;;;;;;;-142.37;100.00;59669.53;5015931;28;20042;-68
2021/07/22 02:02:32;;;;;;;1.90;0.73;;;;;;;-142.37;100.00;59669.53;5016200;28;20029;-68
2021/07/22 02:04:59;;;;;;;0.52;0.20;;;;;;;-142.37;100.00;59669.53;5016312;28;20022;-68
2021/07/22 02:07:24;;;;;;;2.33;0.35;;;;;;;-142.37;100.00;59669.53;5016502;28;20106;-66
2021/07/22 02:09:50;;;;;;;0.75;0.40;;;;;;;-142.37;100.00;59669.53;5017177;28;20105;-67
2021/07/22 02:12:15;;;;;;;1.10;0.50;;;;;;;-142.37;100.00;59669.53;5031435;28;20486;-67
2021/07/22 02:14:42;;;;;;;1.95;0.75;;;;;;;-142.37;100.00;59669.53;5035800;28;20079;-68
2021/07/22 02:17:08;;;;;;;1.48;0.40;;;;;;;-142.37;100.00;59669.53;5035972;28;20025;-70
2021/07/22 02:19:34;;;;;;;1.50;0.40;;;;;;;-142.37;100.00;59669.53;5023053;28;20400;-69
2021/07/22 02:22:00;;;;;;;0.30;0.17;;;;;;;-142.37;100.00;59669.53;5015595;28;20029;-68
2021/07/22 02:24:25;;;;;;;1.90;0.60;;;;;;;-142.37;100.00;59669.53;5015926;28;20076;-67
2021/07/22 02:26:50;;;;;;;1.05;0.57;;;;;;;-142.37;100.00;59669.53;5016092;28;20499;-68
2021/07/22 02:29:17;;;;;;;1.25;0.60;;;;;;;-142.37;100.00;59669.53;5015973;28;20429;-68
2021/07/22 02:31:42;;;;;;;1.70;0.50;;;;;;;-142.37;100.00;59669.53;5016000;28;20021;-70
2021/07/22 02:34:09;;;;;;;2.33;0.35;;;;;;;-142.37;100.00;59669.53;5015841;28;20099;-69
2021/07/22 02:36:36;;;;;;;1.52;0.60;;;;;;;-142.37;100.00;59669.53;5015922;28;20028;-69
2021/07/22 02:39:01;;;;;;;2.22;0.93;;;;;;;-142.37;100.00;59669.53;5015653;28;20484;-67
2021/07/22 02:41:29;;;;;;;0.73;0.47;;;;;;;-142.37;100.00;59669.53;5015670;28;20060;-67
2021/07/22 02:43:55;;;;;;;1.13;0.65;;;;;;;-142.37;100.00;59669.53;5016392;28;20033;-67
2021/07/22 02:46:21;;;;;;;1.88;0.82;;;;;;;-142.37;100.00;59669.53;5015755;28;20059;-68
2021/07/22 02:48:46;;;;;;;2.38;0.40;;;;;;;-142.37;100.00;59669.53;5015656;28;20096;-69
2021/07/22 02:51:11;;;;;;;1.67;0.47;;;;;;;-142.37;100.00;59669.53;5021777;28;20036;-69
2021/07/22 02:53:37;;;;;;;2.10;0.55;;;;;;;-142.37;100.00;59669.53;5035233;28;20033;-67
2021/07/22 02:56:03;;;;;;;1.73;0.52;;;;;;;-142.37;100.00;59669.53;5035518;28;20029;-66
2021/07/22 02:58:29;;;;;;;1.80;0.57;;;;;;;-142.37;100.00;59669.53;5035186;28;20542;-67
2021/07/22 03:00:55;;;;;;;1.45;0.50;;;;;;;-142.37;100.00;59669.53;5034819;28;20077;-67
2021/07/22 03:03:21;;;;;;;2.67;0.50;;;;;;;-142.37;100.00;59669.53;5035180;28;20029;-69
2021/07/22 03:05:49;;;;;;;2.15;0.60;;;;;;;-142.37;100.00;59669.53;5034853;28;20030;-69
2021/07/22 03:08:16;;;;;;;2.28;0.40;;;;;;;-142.37;100.00;59669.53;5034956;28;20027;-69
2021/07/22 03:10:42;;;;;;;0.52;0.38;;;;;;;-142.37;100.00;59669.53;5034762;28;20754;-68
2021/07/22 03:13:08;;;;;;;1.58;0.32;;;;;;;-142.37;100.00;59669.53;5034507;28;20029;-68
2021/07/22 03:15:34;;;;;;;0.95;0.40;;;;;;;-142.37;100.00;59669.53;5015799;28;20527;-69
2021/07/22 03:17:59;;;;;;;0.57;0.32;;;;;;;-142.37;100.00;59669.53;5026702;28;20039;-70
2021/07/22 03:20:25;;;;;;;1.45;0.40;;;;;;;-142.37;100.00;59669.53;5034955;28;20332;-70
2021/07/22 03:22:50;;;;;;;0.80;0.50;;;;;;;-142.37;100.00;59669.53;5034853;28;20032;-70
2021/07/22 03:25:17;;;;;;;1.42;0.70;;;;;;;-142.37;100.00;59669.53;5034468;28;20017;-68
2021/07/22 03:27:42;;;;;;;0.77;0.65;;;;;;;-142.37;100.00;59669.53;5034406;28;20035;-68
2021/07/22 03:30:09;;;;;;;1.25;0.47;;;;;;;-142.37;100.00;59669.53;5034538;28;20108;-69
2021/07/22 03:32:38;;;;;;;0.98;0.40;;;;;;;-142.37;100.00;59669.53;5033729;28;20041;-69
2021/07/22 03:35:04;;;;;;;2.05;0.60;;;;;;;-142.37;100.00;59669.53;5022921;28;20025;-69
2021/07/22 03:37:32;;;;;;;1.15;0.28;;;;;;;-142.37;100.00;59669.53;5014702;28;20101;-69
2021/07/22 03:39:57;;;;;;;1.52;0.45;;;;;;;-142.37;100.00;59669.53;5014480;28;20032;-69
2021/07/22 03:42:27;;;;;;;1.27;0.40;;;;;;;-142.37;100.00;59669.53;5014783;28;20018;-67
2021/07/22 03:44:52;;;;;;;0.82;0.40;;;;;;;-142.37;100.00;59669.53;5034168;28;20026;-67
2021/07/22 03:47:18;;;;;;;2.13;0.40;;;;;;;-142.37;100.00;59669.53;5034157;28;20061;-68
2021/07/22 03:49:43;;;;;;;1.50;0.30;;;;;;;-142.37;100.00;59669.53;5034189;28;20017;-68
2021/07/22 03:52:08;;;;;;;1.05;0.40;;;;;;;-142.37;100.00;59669.53;5034035;28;20102;-69
2021/07/22 03:54:35;;;;;;;0.93;0.40;;;;;;;-142.37;100.00;59669.53;5033478;28;20033;-69
2021/07/22 03:57:02;;;;;;;2.03;0.55;;;;;;;-142.37;100.00;59669.53;5034081;28;20468;-68
2021/07/22 03:59:27;;;;;;;1.65;0.30;;;;;;;-142.37;100.00;59669.53;5033975;28;20029;-68
2021/07/22 04:01:52;;;;;;;1.20;0.35;;;;;;;-142.37;100.00;59669.53;5034009;28;20045;-68
2021/07/22 04:04:18;;;;;;;1.98;0.70;;;;;;;-142.37;100.00;59669.53;5033878;28;20024;-69
2021/07/22 04:06:44;;;;;;;1.30;1.05;;;;;;;-142.37;100.00;59669.53;5034104;28;20033;-69
2021/07/22 04:09:12;;;;;;;0.80;0.30;;;;;;;-142.37;100.00;59669.53;5033878;28;20045;-70
2021/07/22 04:11:37;;;;;;;1.95;0.40;;;;;;;-142.37;100.00;59669.53;5034042;28;20029;-69
2021/07/22 04:14:03;;;;;;;0.30;0.20;;;;;;;-142.37;100.00;59669.53;5032612;28;20064;-69
2021/07/22 04:16:29;;;;;;;1.33;0.30;;;;;;;-142.37;100.00;59669.53;5032131;28;20029;-69
2021/07/22 04:18:55;;;;;;;0.65;0.30;;;;;;;-142.37;100.00;59669.53;5019213;28;20372;-69
2021/07/22 04:21:22;;;;;;;0.77;0.20;;;;;;;-142.37;100.00;59669.53;5033578;28;20484;-71
2021/07/22 04:23:47;;;;;;;1.30;0.52;;;;;;;-142.37;100.00;59669.53;5033874;28;20029;-72
2021/07/22 04:26:15;;;;;;;0.30;0.20;;;;;;;-142.37;100.00;59669.53;5033513;28;20021;-70
2021/07/22 04:28:41;;;;;;;0.85;0.30;;;;;;;-142.37;100.00;59669.53;5033853;28;20017;-69
2021/07/22 04:31:06;;;;;;;1.70;0.22;;;;;;;-142.37;100.00;59669.53;5033491;28;20033;-69
2021/07/22 04:33:31;;;;;;;1.33;0.50;;;;;;;-142.37;100.00;59669.53;5033315;28;20026;-69
2021/07/22 04:35:56;;;;;;;0.90;0.35;;;;;;;-142.37;100.00;59669.53;5033401;28;20037;-70
2021/07/22 04:38:22;;;;;;;1.33;0.30;;;;;;;-142.37;100.00;59669.53;5033360;28;20533;-71
2021/07/22 04:40:47;;;;;;;0.88;0.43;;;;;;;-142.37;100.00;59669.53;5033569;28;20402;-70
2021/07/22 04:43:14;;;;;;;0.95;0.40;;;;;;;-142.37;100.00;59669.53;5031630;28;20156;-67
2021/07/22 04:45:39;;;;;;;0.50;0.25;;;;;;;-142.37;100.00;59669.53;5032175;28;20555;-67
2021/07/22 04:48:05;;;;;;;1.58;0.45;;;;;;;-142.37;100.00;59669.53;5033502;28;20036;-68
2021/07/22 04:50:32;;;;;;;1.20;0.38;;;;;;;-142.37;100.00;59669.53;5024656;28;20169;-69
2021/07/22 04:52:59;;;;;;;0.57;0.28;;;;;;;-142.37;100.00;59669.53;5013194;28;20030;-69
2021/07/22 04:55:26;;;;;;;1.05;0.40;;;;;;;-142.37;100.00;59669.53;5013640;28;20022;-69
2021/07/22 04:57:58;;;;;;;1.40;0.22;;;;;;;-142.37;100.00;59669.53;5013583;28;20034;-67
2021/07/22 05:00:24;;;;;;;1.15;0.20;;;;;;;-142.37;100.00;59669.53;5013248;28;20050;-67
2021/07/22 05:02:49;;;;;;;1.73;0.45;;;;;;;-142.37;100.00;59669.53;5013482;28;20101;-68
2021/07/22 05:05:24;;;;;;;0.95;0.20;;;;;;;-142.37;100.00;59669.53;5013633;28;20022;-69
2021/07/22 05:07:49;;;;;;;1.08;0.40;;;;;;;-142.37;100.00;59669.53;5013430;28;20057;-69
2021/07/22 05:10:17;;;;;;;1.20;0.20;;;;;;;-142.37;100.00;59669.53;5012102;28;20056;-70
2021/07/22 05:12:43;;;;;;;1.98;0.60;;;;;;;-142.37;100.00;59669.53;5013360;28;20030;-70
2021/07/22 05:15:09;;;;;;;0.95;0.28;;;;;;;-142.37;100.00;59669.53;5013554;28;20022;-69
2021/07/22 05:17:39;;;;;;;0.70;0.20;;;;;;;-142.37;100.00;59669.53;5013435;28;20032;-68
2021/07/22 05:20:05;;;;;;;0.57;0.20;;;;;;;-142.37;100.00;59669.53;5013173;28;20030;-67
2021/07/22 05:22:31;;;;;;;1.02;0.45;;;;;;;-142.37;100.00;59669.53;5011716;28;20071;-69
2021/07/22 05:24:56;;;;;;;1.08;0.10;;;;;;;-142.37;100.00;59669.53;5013178;28;20022;-69
2021/07/22 05:27:22;;;;;;;0.70;0.30;;;;;;;-142.37;100.00;59669.53;5012962;28;20461;-69
2021/07/22 05:29:48;;;;;;;1.13;0.38;;;;;;;-142.37;100.00;59669.53;5013065;28;20034;-68
2021/07/22 05:32:13;;;;;;;1.00;0.20;;;;;;;-142.37;100.00;59669.53;5013079;28;20505;-67
2021/07/22 05:34:39;;;;;;;1.08;0.30;;;;;;;-142.37;100.00;59669.53;5013398;28;20579;-67
2021/07/22 05:37:05;;;;;;;1.77;0.50;;;;;;;-142.37;100.00;59669.53;5028977;28;20021;-67
2021/07/22 05:39:31;;;;;;;1.05;0.30;;;;;;;-142.37;100.00;59669.53;5032690;28;20032;-68
2021/07/22 05:41:56;;;;;;;0.57;0.25;;;;;;;-142.37;100.00;59669.53;5032589;28;20052;-69
2021/07/22 05:44:22;;;;;;;0.95;0.50;;;;;;;-142.37;100.00;59669.53;5023445;28;20472;-68
2021/07/22 05:46:47;;;;;;;1.35;0.47;;;;;;;-142.37;100.00;59669.53;5012876;28;20033;-67
2021/07/22 05:49:12;;;;;;;0.98;0.40;;;;;;;-142.37;100.00;59669.53;5012846;28;20033;-66
2021/07/22 05:51:38;;;;;;;0.40;0.30;;;;;;;-142.37;100.00;59669.53;5012975;28;20021;-67
2021/07/22 05:54:03;;;;;;;0.68;0.30;;;;;;;-142.37;100.00;59669.53;5012840;28;20040;-68
2021/07/22 05:56:35;;;;;;;1.08;0.40;;;;;;;-142.37;100.00;59669.53;5031544;28;20033;-69
2021/07/22 05:59:00;;;;;;;0.55;0.20;;;;;;;-142.37;100.00;59669.53;5026561;28;20107;-69
2021/07/22 06:01:26;;;;;;;0.70;0.25;;;;;;;-142.37;100.00;59669.53;5035863;28;20069;-67
2021/07/22 06:03:51;;;;;;;0.70;0.30;;;;;;;-142.37;100.00;59669.53;5017967;28;20469;-67
2021/07/22 06:06:16;;;;;;;0.93;0.28;;;;;;;-142.37;100.00;59669.53;5022856;28;20014;-68
2021/07/22 06:08:42;;;;;;;0.43;0.20;;;;;;;-142.37;100.00;59669.53;5036433;28;20021;-69
2021/07/22 06:11:12;;;;;;;0.77;0.30;;;;;;;-142.37;100.00;59669.53;5036049;28;20501;-69
2021/07/22 06:13:38;;;;;;;1.52;0.40;;;;;;;-142.37;100.00;59669.53;5032800;28;20022;-70
2021/07/22 06:16:08;;;;;;;0.52;0.38;;;;;;;-142.37;100.00;59669.53;5035930;28;20021;-68
2021/07/22 06:18:35;;;;;;;0.68;0.30;;;;;;;-142.37;100.00;59669.53;5030655;28;20071;-68
2021/07/22 06:21:00;;;;;;;0.30;0.20;;;;;;;-142.37;100.00;59669.53;5023703;28;20049;-69
2021/07/22 06:23:26;;;;;;;0.47;0.25;;;;;;;-142.37;100.00;59669.53;5016211;28;20018;-69
2021/07/22 06:25:56;;;;;;;1.13;0.40;;;;;;;-142.37;100.00;59669.53;5015996;28;20464;-69
2021/07/22 06:28:23;;;;;;;1.25;0.63;;;;;;;-142.37;100.00;59669.53;5016021;28;20481;-69
2021/07/22 06:30:54;;;;;;;1.17;0.30;;;;;;;-142.37;100.00;59669.53;5016083;28;20038;-69
2021/07/22 06:33:20;;;;;;;1.25;0.25;;;;;;;-142.37;100.00;59669.53;5026135;28;20044;-68
2021/07/22 06:35:45;;;;;;;0.50;0.25;;;;;;;-142.37;100.00;59669.53;5035595;28;20030;-67
2021/07/22 06:38:13;;;;;;;1.23;0.47;;;;;;;-142.37;100.00;59669.53;5017582;28;20038;-67
2021/07/22 06:40:39;;;;;;;1.73;0.28;;;;;;;-142.37;100.00;59669.53;5029473;28;20483;-67
2021/07/22 06:43:06;;;;;;;2.13;0.30;;;;;;;-142.37;100.00;59669.53;5035069;28;20064;-68
2021/07/22 06:45:33;;;;;;;1.10;0.30;;;;;;;-142.37;100.00;59669.53;5034899;28;20025;-69
2021/07/22 06:47:58;;;;;;;3.50;0.85;;;;;;;-142.37;100.00;59669.53;5035121;28;20390;-69
2021/07/22 06:50:23;;;;;;;1.05;0.30;;;;;;;-142.37;100.00;59669.53;5035155;28;20665;-67
2021/07/22 06:52:49;;;;;;;1.05;0.55;;;;;;;-142.37;100.00;59669.53;5035300;28;20021;-68
2021/07/22 06:55:14;;;;;;;1.23;0.50;;;;;;;-142.37;100.00;59669.53;5022697;28;20052;-68
2021/07/22 06:57:40;;;;;;;0.68;0.40;;;;;;;-142.37;100.00;59669.53;5032009;28;20044;-68
2021/07/22 07:00:06;;;;;;;1.35;0.50;;;;;;;-142.37;100.00;59669.53;5032614;28;20492;-69
2021/07/22 07:02:31;;;;;;;1.38;0.40;;;;;;;-142.37;100.00;59669.53;5031760;28;20025;-70
2021/07/22 07:04:57;;;;;;;1.08;0.32;;;;;;;-142.37;100.00;59669.53;5022866;28;20025;-71
2021/07/22 07:07:23;;;;;;;1.30;0.73;;;;;;;-142.37;100.00;59669.53;5030735;28;20492;-70
2021/07/22 07:09:49;;;;;;;0.35;0.30;;;;;;;-142.37;100.00;59669.53;5032719;28;20029;-68
2021/07/22 07:12:15;;;;;;;1.02;0.60;;;;;;;-142.37;100.00;59669.53;5030713;28;20040;-69
2021/07/22 07:14:40;;;;;;;0.90;0.40;;;;;;;-142.37;100.00;59669.53;5033025;28;20033;-69
2021/07/22 07:17:07;;;;;;;0.98;0.40;;;;;;;-142.37;100.00;59669.53;5029780;28;20025;-70
2021/07/22 07:19:35;;;;;;;1.35;0.43;;;;;;;-142.37;100.00;59669.53;5026340;28;20408;-71
2021/07/22 07:22:01;;;;;;;3.33;0.70;;;;;;;-142.37;100.00;59669.53;5015171;28;20030;-71
2021/07/22 07:24:27;;;;;;;0.98;0.40;;;;;;;-142.37;100.00;59669.53;5033624;28;20152;-69
2021/07/22 07:26:54;;;;;;;1.50;0.47;;;;;;;-142.37;100.00;59669.53;5035341;28;20049;-68
2021/07/22 07:29:20;;;;;;;0.63;0.25;;;;;;;-142.37;100.00;59669.53;5025361;28;20036;-68
2021/07/22 07:31:45;;;;;;;1.75;0.50;;;;;;;-142.37;100.00;59669.53;5015485;28;20113;-68
2021/07/22 07:34:11;;;;;;;1.15;0.47;;;;;;;-142.37;100.00;59669.53;5019632;28;20464;-69
2021/07/22 07:36:41;;;;;;;1.38;0.80;;;;;;;-142.37;100.00;59669.53;5028922;28;20368;-70
2021/07/22 07:39:08;;;;;;;3.00;0.60;;;;;;;-142.37;100.00;59669.53;5029341;28;20063;-70
2021/07/22 07:41:33;;;;;;;0.75;0.73;;;;;;;-142.37;100.00;59669.53;5034391;28;20376;-69
2021/07/22 07:43:59;;;;;;;0.68;0.30;;;;;;;-142.37;100.00;59669.53;5034269;28;20029;-67
2021/07/22 07:46:24;;;;;;;0.90;0.30;;;;;;;-142.37;100.00;59669.53;5034351;28;20025;-68
2021/07/22 07:48:49;;;;;;;1.83;0.40;;;;;;;-142.37;100.00;59669.53;5022127;28;20037;-68
2021/07/22 07:51:16;;;;;;;1.00;0.70;;;;;;;-142.37;100.00;59669.53;5034108;28;20029;-69
2021/07/22 07:53:41;;;;;;;2.60;0.70;;;;;;;-142.37;100.00;59669.53;5025673;28;20510;-70
2021/07/22 07:56:07;;;;;;;1.55;0.70;;;;;;;-142.37;100.00;59669.53;5034092;28;20025;-70
2021/07/22 07:58:33;;;;;;;1.63;0.60;;;;;;;-142.37;100.00;59669.53;5032482;28;20468;-69
2021/07/22 08:00:58;;;;;;;1.90;0.77;;;;;;;-142.37;100.00;59669.53;5031905;28;20060;-69
2021/07/22 08:03:24;;;;;;;1.60;0.80;;;;;;;-142.37;100.00;59669.53;5033561;28;20026;-69
2021/07/22 08:05:51;;;;;;;1.40;0.63;;;;;;;-142.37;100.00;59669.53;5029079;28;20030;-69
2021/07/22 08:08:17;;;;;;;1.98;0.50;;;;;;;-142.37;100.00;59669.53;5028967;28;20059;-69
2021/07/22 08:10:42;;;;;;;2.70;0.28;;;;;;;-142.37;100.00;59669.53;5030510;28;20029;-70
2021/07/22 08:13:09;;;;;;;1.52;0.43;;;;;;;-142.37;100.00;59669.53;5020801;28;20050;-69
2021/07/22 08:15:37;;;;;;;2.65;0.73;;;;;;;-142.37;100.00;59669.53;5024944;28;20022;-70
2021/07/22 08:18:02;;;;;;;1.55;0.55;;;;;;;-142.37;100.00;59669.53;5028375;28;20026;-69
2021/07/22 08:20:27;;;;;;;0.93;0.40;;;;;;;-142.37;100.00;59669.53;5022445;28;20071;-69
2021/07/22 08:22:53;;;;;;;2.05;0.60;;;;;;;-142.37;100.00;59669.53;5025013;28;20041;-70
2021/07/22 08:25:19;;;;;;;2.80;0.65;;;;;;;-142.37;100.00;59669.53;5026715;28;20518;-70
2021/07/22 08:27:45;;;;;;;2.03;0.60;;;;;;;-142.37;100.00;59669.53;5021969;28;20108;-70
2021/07/22 08:30:11;;;;;;;5.55;0.93;;;;;;;-142.37;100.00;59669.53;5028121;28;20033;-69
2021/07/22 08:32:37;;;;;;;2.88;0.85;;;;;;;-142.37;100.00;59669.53;5027411;28;20058;-70
2021/07/22 08:35:03;;;;;;;1.38;0.75;;;;;;;-142.37;100.00;59669.53;5027928;28;20049;-69
2021/07/22 08:37:28;;;;;;;1.23;0.50;;;;;;;-142.37;100.00;59669.53;5024279;28;20026;-69
2021/07/22 08:39:57;;;;;;;1.40;0.50;;;;;;;-142.37;100.00;59669.53;5013356;28;20432;-70
2021/07/22 08:42:25;;;;;;;1.00;0.60;;;;;;;-142.37;100.00;59669.53;5028695;28;20108;-71
2021/07/22 08:44:51;;;;;;;0.57;0.57;;;;;;;-142.37;100.00;59669.53;5014825;28;20354;-70
2021/07/22 08:47:17;;;;;;;2.35;0.75;;;;;;;-142.37;100.00;59669.53;5018614;28;20025;-69
2021/07/22 08:49:43;;;;;;;0.95;0.55;;;;;;;-142.37;100.00;59669.53;5016910;28;20021;-69
2021/07/22 08:52:11;;;;;;;2.33;0.70;;;;;;;-142.37;100.00;59669.53;5018503;28;20400;-70
2021/07/22 08:54:38;;;;;;;2.05;0.40;;;;;;;-142.37;100.00;59669.53;5028050;28;20022;-69
2021/07/22 08:57:09;;;;;;;1.10;0.55;;;;;;;-142.37;100.00;59669.53;5013746;28;20105;-70
2021/07/22 08:59:35;;;;;;;1.15;0.40;;;;;;;-142.37;100.00;59669.53;5038842;23;20144;-69
2021/07/22 09:02:01;;;;;;;3.05;0.82;;;;;;;-142.37;100.00;59669.53;5033637;28;20849;-73
2021/07/22 09:04:28;;;;;;;1.35;0.65;;;;;;;-142.37;100.00;59669.53;5033135;28;20025;-71
2021/07/22 09:06:55;;;;;;;1.15;0.57;;;;;;;-142.37;100.00;59669.53;5033453;28;20495;-71
2021/07/22 09:09:28;;;;;;;1.17;0.35;;;;;;;-142.37;100.00;59669.53;5033430;28;20029;-71
2021/07/22 09:11:58;;;;;;;2.25;0.40;;;;;;;-142.37;100.00;59669.53;5033295;28;20025;-71
2021/07/22 09:14:26;;;;;;;0.40;0.25;;;;;;;-142.37;100.00;59669.53;5015692;28;20079;-71
2021/07/22 09:16:51;;;;;;;1.92;0.45;;;;;;;-142.37;100.00;59669.53;5033306;28;20075;-72
2021/07/22 09:19:37;;;;;;;2.20;0.55;;;;;;;-142.37;100.00;59669.53;5033175;28;20021;-72
2021/07/22 09:22:07;;;;;;;1.73;0.57;;;;;;;-142.37;100.00;59669.53;5026373;28;20040;-72
2021/07/22 09:24:50;;;;;;;3.42;0.57;;;;;;;-142.37;100.00;59669.53;5004440;28;20026;-71
2021/07/22 09:27:41;;;;;;;1.60;0.45;;;;;;;-142.37;100.00;59669.53;5013624;28;20475;-70
2021/07/22 09:30:19;;;;;;;2.83;0.60;;;;;;;-142.37;100.00;59669.53;5014929;28;20376;-72
2021/07/22 09:32:49;;;;;;;2.20;0.43;;;;;;;-142.37;100.00;59669.53;5030484;28;20487;-72
2021/07/22 09:35:18;;;;;;;1.40;0.68;;;;;;;-142.37;100.00;59669.53;5034818;28;20150;-70
2021/07/22 09:37:49;;;;;;;0.95;0.30;;;;;;;-142.37;100.00;59669.53;5035262;28;20520;-67
2021/07/22 09:40:18;;;;;;;1.40;0.50;;;;;;;-142.37;100.00;59669.53;5033218;28;20558;-67
2021/07/22 09:42:54;;;;;;;0.70;0.40;;;;;;;-142.37;100.00;59669.53;5007658;28;20033;-67
2021/07/22 09:45:25;;;;;;;2.20;0.90;;;;;;;-142.37;100.00;59669.53;5022305;28;20075;-67
2021/07/22 09:47:51;;;;;;;1.48;0.50;;;;;;;-142.37;100.00;59669.53;5024985;28;20157;-68
2021/07/22 09:50:22;;;;;;;1.65;0.60;;;;;;;-142.37;100.00;59669.53;5018353;28;20014;-67
2021/07/22 09:52:49;;;;;;;1.40;0.43;;;;;;;-142.37;100.00;59669.53;5022919;28;20022;-67
2021/07/22 09:55:31;;;;;;;1.45;0.50;;;;;;;-142.37;100.00;59669.53;5016104;28;20037;-66
2021/07/22 09:57:58;;;;;;;2.63;0.30;;;;;;;-142.37;100.00;59669.53;5018469;28;20022;-68
2021/07/22 10:00:25;;;;;;;1.27;0.60;;;;;;;-142.37;100.00;59669.53;5032863;28;20095;-67
2021/07/22 10:02:52;;;;;;;0.90;0.40;;;;;;;-142.37;100.00;59669.53;5015885;28;20112;-67
2021/07/22 10:05:27;;;;;;;1.23;0.40;;;;;;;-142.37;100.00;59669.53;5015044;28;20599;-64
2021/07/22 10:07:54;;;;;;;1.42;0.32;;;;;;;-142.37;100.00;59669.53;5012916;28;20037;-64
2021/07/22 10:10:26;;;;;;;1.45;0.60;;;;;;;-142.37;100.00;59669.53;5015446;28;20022;-64
2021/07/22 10:12:55;;;;;;;0.93;0.63;;;;;;;-142.37;100.00;59669.53;5016036;28;20144;-65
2021/07/22 10:15:23;;;;;;;2.60;0.80;;;;;;;-142.37;100.00;59669.53;5015589;28;20026;-64
2021/07/22 10:17:52;;;;;;;1.70;0.52;;;;;;;-142.37;100.00;59669.53;5010788;28;20036;-64
2021/07/22 10:20:18;;;;;;;2.78;1.25;;;;;;;-142.37;100.00;59669.53;4995678;28;20030;-64
2021/07/22 10:22:45;;;;;;;1.15;0.52;;;;;;;-142.37;100.00;59669.53;4978173;28;20049;-63
2021/07/22 10:25:12;;;;;;;2.13;0.55;;;;;;;-142.37;100.00;59669.53;4996135;28;20026;-63
2021/07/22 10:27:42;;;;;;;1.75;0.50;;;;;;;-142.37;100.00;59669.53;4995394;28;20389;-64
2021/07/22 10:30:09;;;;;;;1.23;0.45;;;;;;;-142.37;100.00;59669.53;4995672;28;20105;-64
2021/07/22 10:32:37;;;;;;;1.50;0.50;;;;;;;-142.37;100.00;59669.53;5014079;28;20036;-65
2021/07/22 10:35:03;;;;;;;2.10;0.68;;;;;;;-142.37;100.00;59669.53;5015448;28;20116;-65
2021/07/22 10:37:28;;;;;;;0.93;0.50;;;;;;;-142.37;100.00;59669.53;5015248;28;20376;-65
2021/07/22 10:40:09;;;;;;;1.45;0.70;;;;;;;-142.37;100.00;59669.53;5015545;28;20109;-64
2021/07/22 10:42:51;;;;;;;1.98;0.55;;;;;;;-142.37;100.00;59669.53;5015487;28;20021;-64
2021/07/22 10:45:19;;;;;;;2.45;0.60;;;;;;;-142.37;100.00;59669.53;5015573;28;20068;-65
2021/07/22 10:48:08;;;;;;;1.83;0.57;;;;;;;-142.37;100.00;59669.53;5015459;28;20037;-65
2021/07/22 10:50:39;;;;;;;1.85;0.63;;;;;;;-142.37;100.00;59669.53;5012916;28;20018;-63
2021/07/22 10:53:05;;;;;;;2.17;0.70;;;;;;;-142.37;100.00;59669.53;5015035;28;20476;-63
2021/07/22 10:55:40;;;;;;;1.75;0.32;;;;;;;-142.37;100.00;59669.53;4998965;28;20026;-64
2021/07/22 10:58:33;;;;;;;0.70;0.40;;;;;;;-142.37;100.00;59669.53;4995117;28;20038;-64
2021/07/22 11:00:59;;;;;;;1.35;0.40;;;;;;;-142.37;100.00;59669.53;4994986;28;20042;-64
2021/07/22 11:03:36;;;;;;;0.73;0.45;;;;;;;-142.37;100.00;59669.53;4994562;28;20026;-64
2021/07/22 11:06:06;;;;;;;0.50;0.40;;;;;;;-142.37;100.00;59669.53;4995620;28;20466;-65
2021/07/22 11:08:33;;;;;;;0.70;0.47;;;;;;;-142.37;100.00;59669.53;4995500;28;20537;-66